Time;durP1;ratioP1;P1;durP2;ratioP2;P2;SDS_P1;SDS_P2;PMS_P1;PMS_P2;Temp;Humidity;BMP_temperature;BMP_pressure;BME280_temperature;BME280_humidity;BME280_pressure;Samples;Min_cycle;Max_cycle;Signal;HPM_P1;HPM_P2
2022/03/15 00:00:09;;;;;;;;;7.20;6.60;;;;;5.87;65.71;101118.97;5117317;28;8840;-63
2022/03/15 00:02:37;;;;;;;;;6.40;6.40;;;;;5.89;65.88;101115.34;5106881;28;8818;-64
2022/03/15 00:05:05;;;;;;;;;6.00;6.00;;;;;5.91;65.70;101124.06;5098034;28;8841;-63
2022/03/15 00:07:32;;;;;;;;;9.80;8.40;;;;;5.90;65.62;101114.41;5097843;28;8842;-63
2022/03/15 00:10:00;;;;;;;;;1.00;1.00;;;;;5.88;65.79;101113.63;5098053;28;8825;-63
2022/03/15 00:12:29;;;;;;;;;6.00;4.80;;;;;5.88;65.75;101120.69;5107738;28;8857;-65
2022/03/15 00:14:56;;;;;;;;;4.80;4.40;;;;;5.84;65.82;101116.47;5118398;28;8871;-63
2022/03/15 00:17:24;;;;;;;;;7.80;6.60;;;;;5.81;65.80;101116.56;5117879;28;8832;-64
2022/03/15 00:19:52;;;;;;;;;8.20;7.00;;;;;5.78;66.04;101108.75;5118496;28;9535;-63
2022/03/15 00:22:20;;;;;;;;;2.60;1.00;;;;;5.76;65.34;101113.25;5108937;28;8818;-63
2022/03/15 00:24:48;;;;;;;;;8.20;7.80;;;;;5.73;65.65;101114.22;5096657;28;8834;-63
2022/03/15 00:27:15;;;;;;;;;7.00;6.00;;;;;5.69;66.13;101123.19;5096242;28;8858;-63
2022/03/15 00:29:46;;;;;;;;;6.60;6.60;;;;;5.67;66.31;101114.47;5097522;28;9479;-64
2022/03/15 00:32:19;;;;;;;;;1.40;1.40;;;;;5.63;66.35;101115.50;5104231;28;8808;-64
2022/03/15 00:34:47;;;;;;;;;8.60;6.60;;;;;5.60;66.56;101113.00;5116292;28;8830;-63
2022/03/15 00:37:15;;;;;;;;;7.80;6.80;;;;;5.57;66.16;101117.56;5118090;28;8836;-63
2022/03/15 00:39:43;;;;;;;;;7.40;6.60;;;;;5.52;66.26;101106.31;5116659;28;8824;-66
2022/03/15 00:42:11;;;;;;;;;8.20;7.80;;;;;5.49;66.43;101109.06;5110422;28;8814;-63
2022/03/15 00:44:39;;;;;;;;;1.40;1.00;;;;;5.45;66.25;101107.47;5097252;28;8880;-63
2022/03/15 00:47:06;;;;;;;;;7.00;4.40;;;;;5.42;66.54;101110.25;5096899;28;8841;-63
2022/03/15 00:49:34;;;;;;;;;10.20;8.60;;;;;5.38;66.56;101111.31;5097359;28;8833;-63
2022/03/15 00:52:02;;;;;;;;;7.20;6.80;;;;;5.33;66.61;101113.25;5102339;28;8846;-63
2022/03/15 00:54:30;;;;;;;;;9.40;9.00;;;;;5.30;66.75;101113.34;5117778;28;8866;-64
2022/03/15 00:56:58;;;;;;;;;9.40;7.00;;;;;5.29;66.77;101111.66;5117299;28;9006;-63
2022/03/15 00:59:25;;;;;;;;;4.80;4.80;;;;;5.26;66.56;101103.84;5117334;28;8824;-63
2022/03/15 01:01:56;;;;;;;;;6.60;6.60;;;;;5.24;66.91;101103.91;5113598;28;9480;-63
2022/03/15 01:04:24;;;;;;;;;6.60;6.00;;;;;5.21;66.48;101103.16;5096889;28;8834;-63
2022/03/15 01:06:52;;;;;;;;;6.40;6.40;;;;;5.15;66.89;101099.00;5095859;28;8846;-63
2022/03/15 01:09:19;;;;;;;;;9.40;8.20;;;;;5.13;66.43;101102.59;5097065;28;9538;-63
2022/03/15 01:11:47;;;;;;;;;8.20;7.00;;;;;5.11;67.50;101100.06;5099252;28;8841;-65
2022/03/15 01:14:15;;;;;;;;;7.80;5.60;;;;;5.08;66.91;101100.16;5117322;28;8827;-67
2022/03/15 01:16:43;;;;;;;;;6.60;6.60;;;;;5.06;66.78;101103.75;5116392;28;8836;-63
2022/03/15 01:19:10;;;;;;;;;6.20;3.60;;;;;5.06;66.59;101109.03;5117266;28;8846;-64
2022/03/15 01:21:39;;;;;;;;;10.00;9.00;;;;;5.04;66.80;101100.34;5115488;28;8847;-64
2022/03/15 01:24:07;;;;;;;;;9.20;9.00;;;;;5.03;66.59;101099.47;5096220;28;8845;-64
2022/03/15 01:26:37;;;;;;;;;12.80;10.00;;;;;5.03;66.51;101104.72;5096732;28;8858;-63
2022/03/15 01:29:04;;;;;;;;;7.00;6.40;;;;;5.04;67.27;101095.94;5096420;28;8838;-64
2022/03/15 01:31:32;;;;;;;;;11.60;9.40;;;;;5.05;66.53;101084.44;5116060;28;8815;-64
2022/03/15 01:34:00;;;;;;;;;9.60;8.20;;;;;5.10;66.85;101089.53;5116517;28;8823;-63
2022/03/15 01:36:30;;;;;;;;;6.00;6.00;;;;;5.12;66.25;101083.28;5116731;28;8823;-63
2022/03/15 01:38:58;;;;;;;;;9.40;7.40;;;;;5.13;66.50;101084.13;5117051;28;8824;-63
2022/03/15 01:41:25;;;;;;;;;4.40;4.20;;;;;5.14;66.84;101077.91;5097691;28;8822;-64
2022/03/15 01:43:55;;;;;;;;;7.80;7.00;;;;;5.14;66.15;101084.06;5096516;28;8853;-64
2022/03/15 01:46:22;;;;;;;;;7.40;6.80;;;;;5.13;66.11;101073.56;5095554;28;8849;-63
2022/03/15 01:48:50;;;;;;;;;6.80;6.60;;;;;5.11;66.90;101081.56;5096197;28;8926;-64
2022/03/15 01:51:18;;;;;;;;;6.20;6.20;;;;;5.11;66.94;101081.56;5113399;28;8816;-63
2022/03/15 01:53:46;;;;;;;;;3.80;3.60;;;;;5.10;66.65;101068.44;5117014;28;8854;-64
2022/03/15 01:56:14;;;;;;;;;3.40;3.00;;;;;5.10;66.61;101071.91;5116865;28;8855;-64
2022/03/15 01:58:42;;;;;;;;;7.60;6.60;;;;;5.10;66.77;101071.06;5116521;28;8832;-65
2022/03/15 02:01:10;;;;;;;;;4.00;4.00;;;;;5.10;66.88;101079.81;5114242;28;8928;-63
2022/03/15 02:03:38;;;;;;;;;4.40;4.40;;;;;5.10;66.71;101079.81;5115348;28;8874;-63
2022/03/15 02:06:06;;;;;;;;;10.80;9.20;;;;;5.10;66.45;101078.97;5114634;28;8853;-64
2022/03/15 02:08:35;;;;;;;;;7.20;6.00;;;;;5.09;66.39;101080.75;5115615;28;8849;-64
2022/03/15 02:11:03;;;;;;;;;9.00;9.00;;;;;5.08;66.52;101076.41;5100434;28;8818;-64
2022/03/15 02:13:31;;;;;;;;;7.20;7.20;;;;;5.09;67.06;101064.06;5096765;28;8810;-64
2022/03/15 02:15:59;;;;;;;;;7.80;7.40;;;;;5.09;66.62;101066.72;5095765;28;8958;-63
2022/03/15 02:18:27;;;;;;;;;3.00;3.00;;;;;5.11;66.08;101070.13;5094939;28;8814;-63
2022/03/15 02:20:55;;;;;;;;;9.20;7.40;;;;;5.11;66.53;101065.72;5108227;28;8856;-64
2022/03/15 02:23:23;;;;;;;;;6.80;6.20;;;;;5.12;66.41;101056.88;5116800;28;8843;-64
2022/03/15 02:25:50;;;;;;;;;9.60;8.20;;;;;5.13;66.51;101049.81;5116768;28;8927;-63
2022/03/15 02:28:19;;;;;;;;;5.60;4.00;;;;;5.13;66.24;101047.16;5116351;28;8834;-64
2022/03/15 02:30:47;;;;;;;;;8.20;8.20;;;;;5.12;66.76;101046.34;5103088;28;8915;-64
2022/03/15 02:33:15;;;;;;;;;7.40;7.40;;;;;5.12;66.81;101046.34;5095867;28;8844;-64
2022/03/15 02:35:43;;;;;;;;;9.40;8.60;;;;;5.14;66.17;101047.13;5096020;28;8830;-64
2022/03/15 02:38:10;;;;;;;;;7.80;7.80;;;;;5.14;66.54;101051.53;5095565;28;8825;-63
2022/03/15 02:40:38;;;;;;;;;7.40;7.00;;;;;5.15;66.57;101055.88;5106566;28;8962;-64
2022/03/15 02:43:06;;;;;;;;;6.20;3.20;;;;;5.14;65.87;101043.59;5115959;28;8854;-64
2022/03/15 02:45:34;;;;;;;;;12.60;12.00;;;;;5.12;66.16;101043.69;5115909;28;8912;-64
2022/03/15 02:48:02;;;;;;;;;12.60;9.40;;;;;5.13;66.60;101047.16;5114339;28;8832;-63
2022/03/15 02:50:29;;;;;;;;;7.00;6.20;;;;;5.13;66.08;101033.97;5104988;28;8887;-63
2022/03/15 02:52:57;;;;;;;;;8.00;7.40;;;;;5.13;66.49;101036.63;5094860;28;8931;-64
2022/03/15 02:55:25;;;;;;;;;7.40;6.80;;;;;5.14;66.16;101027.78;5095027;28;8968;-64
2022/03/15 02:57:52;;;;;;;;;5.20;5.20;;;;;5.15;66.65;101026.84;5094466;28;8834;-63
2022/03/15 03:00:20;;;;;;;;;7.80;7.00;;;;;5.16;66.67;101020.66;5102339;28;8850;-65
2022/03/15 03:02:48;;;;;;;;;8.60;6.80;;;;;5.16;66.41;101018.03;5113900;28;8862;-64
2022/03/15 03:05:16;;;;;;;;;8.20;7.80;;;;;5.17;66.44;101012.66;5115742;28;8852;-64
2022/03/15 03:07:45;;;;;;;;;11.60;9.80;;;;;5.18;66.31;101009.09;5115242;28;8844;-64
2022/03/15 03:10:16;;;;;;;;;9.00;7.00;;;;;5.20;66.55;101014.34;5108089;28;8826;-65
2022/03/15 03:12:44;;;;;;;;;4.00;4.00;;;;;5.21;66.49;101003.72;5095455;28;8836;-64
2022/03/15 03:15:12;;;;;;;;;9.80;9.20;;;;;5.23;65.98;101008.94;5094821;28;8830;-63
2022/03/15 03:17:41;;;;;;;;;9.60;9.20;;;;;5.24;66.51;101014.13;5094750;28;8830;-64
2022/03/15 03:20:09;;;;;;;;;6.00;6.00;;;;;5.24;65.98;101006.22;5099213;28;8832;-63
2022/03/15 03:22:37;;;;;;;;;4.40;3.40;;;;;5.24;66.39;101006.22;5115056;28;8949;-64
2022/03/15 03:25:04;;;;;;;;;6.60;6.60;;;;;5.25;66.24;101004.44;5114973;28;8872;-63
2022/03/15 03:27:32;;;;;;;;;11.20;10.40;;;;;5.24;66.10;101008.84;5114664;28;8832;-64
2022/03/15 03:30:00;;;;;;;;;7.80;6.80;;;;;5.24;66.02;101000.09;5110680;28;8922;-64
2022/03/15 03:32:28;;;;;;;;;7.00;7.00;;;;;5.25;66.19;100999.16;5094794;28;8838;-63
2022/03/15 03:34:55;;;;;;;;;0.60;0.60;;;;;5.27;66.00;100999.97;5093272;28;8878;-64
2022/03/15 03:37:23;;;;;;;;;9.20;8.60;;;;;5.25;66.34;100993.88;5093417;28;8844;-63
2022/03/15 03:39:51;;;;;;;;;11.20;9.00;;;;;5.25;65.91;100999.16;5095823;28;9761;-64
2022/03/15 03:42:19;;;;;;;;;7.00;6.00;;;;;5.23;66.25;100999.22;5094300;28;8840;-68
2022/03/15 03:44:46;;;;;;;;;6.40;6.40;;;;;5.22;66.50;100997.50;5094579;28;8825;-64
2022/03/15 03:47:14;;;;;;;;;8.00;7.40;;;;;5.22;66.60;100992.22;5094191;28;8861;-64
2022/03/15 03:49:42;;;;;;;;;8.60;6.60;;;;;5.23;65.91;100990.47;5094659;28;9519;-63
2022/03/15 03:52:12;;;;;;;;;8.20;8.20;;;;;5.23;66.60;100999.22;5113897;28;9469;-64
2022/03/15 03:54:40;;;;;;;;;9.40;7.80;;;;;5.24;66.00;101000.09;5114093;28;8847;-63
2022/03/15 03:57:07;;;;;;;;;12.00;10.40;;;;;5.22;66.46;100989.59;5113693;28;8932;-64
2022/03/15 03:59:36;;;;;;;;;6.80;5.20;;;;;5.24;65.77;100987.75;5112558;28;8840;-64
2022/03/15 04:02:03;;;;;;;;;8.20;6.80;;;;;5.23;65.99;100987.81;5108393;28;8822;-63
2022/03/15 04:04:32;;;;;;;;;7.80;6.40;;;;;5.22;66.38;100986.06;5092900;28;8859;-64
2022/03/15 04:07:02;;;;;;;;;12.40;9.40;;;;;5.21;66.70;100987.88;5092786;28;8861;-63
2022/03/15 04:09:29;;;;;;;;;6.40;6.40;;;;;5.20;65.98;100994.09;5093290;28;8822;-64
2022/03/15 04:11:58;;;;;;;;;9.80;9.80;;;;;5.21;66.28;100997.56;5098437;28;9519;-64
2022/03/15 04:14:26;;;;;;;;;2.60;1.00;;;;;5.23;65.95;101001.88;5097652;28;8852;-69
2022/03/15 04:16:54;;;;;;;;;0.80;0.00;;;;;5.24;66.50;100997.47;5097850;28;8834;-64
2022/03/15 04:19:21;;;;;;;;;10.80;9.40;;;;;5.24;66.26;100997.47;5111820;28;8820;-64
2022/03/15 04:21:50;;;;;;;;;6.00;5.20;;;;;5.27;66.65;101002.59;5117667;28;8892;-63
2022/03/15 04:24:18;;;;;;;;;13.40;12.00;;;;;5.26;66.41;101000.88;5118509;28;8842;-63
2022/03/15 04:26:47;;;;;;;;;10.40;10.40;;;;;5.25;66.57;101000.00;5117761;28;8847;-64
2022/03/15 04:29:15;;;;;;;;;11.20;9.00;;;;;5.27;65.69;101002.59;5104380;28;8826;-64
2022/03/15 04:31:43;;;;;;;;;7.80;5.20;;;;;5.24;66.39;100993.00;5097097;28;8834;-64
2022/03/15 04:34:11;;;;;;;;;7.40;6.40;;;;;5.23;65.88;100991.31;5095774;28;8846;-66
2022/03/15 04:36:39;;;;;;;;;6.60;6.60;;;;;5.22;66.93;100999.28;5096465;28;8861;-64
2022/03/15 04:39:06;;;;;;;;;9.00;9.00;;;;;5.22;66.65;100999.28;5108170;28;8892;-64
2022/03/15 04:41:34;;;;;;;;;10.40;9.40;;;;;5.22;66.57;101002.78;5117562;28;8924;-64
2022/03/15 04:44:02;;;;;;;;;9.40;6.80;;;;;5.21;66.46;101003.72;5117925;28;9535;-64
2022/03/15 04:46:30;;;;;;;;;12.00;9.60;;;;;5.22;65.96;100999.28;5117537;28;8939;-65
2022/03/15 04:48:58;;;;;;;;;7.40;6.60;;;;;5.25;66.11;100988.59;5106750;28;8903;-63
2022/03/15 04:51:25;;;;;;;;;8.40;7.60;;;;;5.30;66.49;101002.47;5095797;28;8841;-64
2022/03/15 04:53:54;;;;;;;;;12.20;10.80;;;;;5.30;66.24;100992.78;5095399;28;8837;-64
2022/03/15 04:56:22;;;;;;;;;9.00;9.00;;;;;5.30;66.75;100992.78;5096093;28;8834;-64
2022/03/15 04:58:49;;;;;;;;;14.40;13.20;;;;;5.32;66.17;100990.06;5105125;28;8847;-64
2022/03/15 05:01:17;;;;;;;;;6.60;6.40;;;;;5.34;66.50;100981.19;5116900;28;8815;-64
2022/03/15 05:03:46;;;;;;;;;10.00;8.20;;;;;5.36;66.78;100978.44;5117151;28;8866;-64
2022/03/15 05:06:14;;;;;;;;;9.40;7.40;;;;;5.37;66.81;100977.53;5116794;28;8928;-64
2022/03/15 05:08:42;;;;;;;;;8.20;7.80;;;;;5.34;66.01;100975.91;5109125;28;9051;-64
2022/03/15 05:11:08;;;;;;;;;5.20;5.20;;;;;5.31;66.67;100973.38;5096244;28;8838;-64
2022/03/15 05:13:38;;;;;;;;;3.60;3.60;;;;;5.29;66.66;100969.06;5096455;28;8842;-63
2022/03/15 05:16:05;;;;;;;;;7.60;7.60;;;;;5.26;66.42;100971.84;5096455;28;8836;-64
2022/03/15 05:18:34;;;;;;;;;7.00;6.20;;;;;5.24;66.77;100973.69;5101552;28;8834;-64
2022/03/15 05:21:02;;;;;;;;;10.00;10.00;;;;;5.22;66.23;100970.25;5116217;28;8843;-64
2022/03/15 05:23:30;;;;;;;;;11.20;10.40;;;;;5.20;67.06;100972.09;5116355;28;8978;-64
2022/03/15 05:25:58;;;;;;;;;4.40;3.60;;;;;5.20;66.89;100972.97;5117001;28;8855;-64
2022/03/15 05:28:25;;;;;;;;;10.60;10.60;;;;;5.19;66.35;100980.94;5111444;28;8891;-64
2022/03/15 05:30:55;;;;;;;;;12.00;10.80;;;;;5.20;66.76;100974.72;5096208;28;8837;-64
2022/03/15 05:33:23;;;;;;;;;9.00;8.20;;;;;5.19;66.47;100979.16;5094946;28;8846;-63
2022/03/15 05:35:51;;;;;;;;;11.80;9.80;;;;;5.19;66.01;100973.00;5095215;28;8868;-64
2022/03/15 05:38:18;;;;;;;;;8.60;8.60;;;;;5.19;66.40;100963.34;5098671;28;8816;-64
2022/03/15 05:40:46;;;;;;;;;9.20;9.00;;;;;5.20;66.37;100965.03;5116261;28;8816;-64
2022/03/15 05:43:15;;;;;;;;;9.00;7.00;;;;;5.21;66.87;100972.03;5115751;28;9493;-63
2022/03/15 05:45:42;;;;;;;;;9.20;9.00;;;;;5.22;66.51;100965.84;5116182;28;8873;-64
2022/03/15 05:48:10;;;;;;;;;7.00;7.00;;;;;5.21;66.19;100969.41;5112806;28;8838;-63
2022/03/15 05:50:37;;;;;;;;;9.00;9.00;;;;;5.18;67.00;100971.31;5099145;28;8831;-63
2022/03/15 05:53:06;;;;;;;;;4.80;3.80;;;;;5.16;67.09;100968.72;5114917;28;8823;-64
2022/03/15 05:55:33;;;;;;;;;10.00;9.60;;;;;5.15;66.62;100963.50;5115334;28;8870;-65
2022/03/15 05:58:01;;;;;;;;;7.00;6.60;;;;;5.15;66.56;100960.84;5116108;28;8844;-64
2022/03/15 06:00:29;;;;;;;;;9.20;6.80;;;;;5.14;66.61;100954.72;5111769;28;8844;-64
2022/03/15 06:02:57;;;;;;;;;8.80;8.40;;;;;5.16;66.28;100963.44;5094382;28;8859;-64
2022/03/15 06:05:24;;;;;;;;;8.20;6.60;;;;;5.18;67.00;100963.38;5094877;28;8838;-63
2022/03/15 06:07:52;;;;;;;;;8.80;8.20;;;;;5.20;66.61;100953.63;5094470;28;8857;-63
2022/03/15 06:10:21;;;;;;;;;4.00;4.00;;;;;5.22;66.25;100959.69;5093829;28;8956;-63
2022/03/15 06:12:49;;;;;;;;;9.60;9.60;;;;;5.24;66.91;100960.50;5073518;28;9557;-64
2022/03/15 06:15:16;;;;;;;;;4.00;4.00;;;;;5.25;66.87;100957.78;5073904;28;8923;-63
2022/03/15 06:17:45;;;;;;;;;6.40;6.20;;;;;5.27;66.83;100948.03;5073349;28;8856;-64
2022/03/15 06:20:14;;;;;;;;;9.00;9.00;;;;;5.29;66.32;100951.44;5073699;28;8903;-64
2022/03/15 06:22:42;;;;;;;;;6.80;6.00;;;;;5.32;66.19;100946.03;5113045;28;8834;-64
2022/03/15 06:25:09;;;;;;;;;3.00;2.60;;;;;5.35;66.05;100947.69;5104232;28;8854;-64
2022/03/15 06:27:40;;;;;;;;;6.40;6.20;;;;;5.38;66.57;100942.28;5114866;28;8858;-64
2022/03/15 06:30:08;;;;;;;;;4.00;4.00;;;;;5.43;66.03;100943.81;5110194;28;8838;-63
2022/03/15 06:32:36;;;;;;;;;5.60;5.60;;;;;5.47;66.50;100948.03;5093131;28;8855;-64
2022/03/15 06:35:08;;;;;;;;;7.80;7.80;;;;;5.52;66.08;100953.09;5094491;28;8811;-64
2022/03/15 06:37:35;;;;;;;;;6.20;6.00;;;;;5.56;66.07;100949.41;5094532;28;8915;-63
2022/03/15 06:40:03;;;;;;;;;5.60;5.60;;;;;5.59;65.80;100949.28;5093088;28;8837;-64
2022/03/15 06:42:31;;;;;;;;;6.20;6.20;;;;;5.62;66.08;100949.16;5090387;28;8830;-63
2022/03/15 06:44:59;;;;;;;;;7.00;6.20;;;;;5.66;66.00;100953.38;5089987;28;8866;-63
2022/03/15 06:47:27;;;;;;;;;9.60;9.20;;;;;5.69;65.52;100938.25;5088460;28;8853;-64
2022/03/15 06:49:55;;;;;;;;;10.00;9.00;;;;;5.76;65.66;100941.50;5089728;28;8834;-63
2022/03/15 06:52:23;;;;;;;;;9.80;9.20;;;;;5.82;66.04;100938.59;5088880;28;8834;-63
2022/03/15 06:54:50;;;;;;;;;8.20;8.20;;;;;5.89;65.39;100945.31;5089530;28;8834;-63
2022/03/15 06:57:18;;;;;;;;;8.20;7.40;;;;;5.94;65.75;100933.63;5089472;28;8935;-64
2022/03/15 06:59:46;;;;;;;;;4.00;4.00;;;;;6.03;65.50;100935.00;5087850;28;8853;-63
2022/03/15 07:02:14;;;;;;;;;4.40;4.40;;;;;6.10;64.92;100929.38;5089486;28;8842;-63
2022/03/15 07:04:42;;;;;;;;;8.40;7.00;;;;;6.18;65.19;100935.16;5089275;28;9521;-63
2022/03/15 07:07:10;;;;;;;;;7.80;7.80;;;;;6.24;65.18;100932.25;5088150;28;9013;-64
2022/03/15 07:09:38;;;;;;;;;11.80;9.80;;;;;6.30;64.62;100931.94;5088225;28;8869;-63
2022/03/15 07:12:06;;;;;;;;;6.20;4.00;;;;;6.34;64.67;100933.53;5090237;28;8860;-64
2022/03/15 07:14:34;;;;;;;;;9.60;7.00;;;;;6.40;64.61;100927.94;5090615;28;8841;-63
2022/03/15 07:17:02;;;;;;;;;7.60;6.40;;;;;6.45;64.37;100925.94;5090406;28;8817;-64
2022/03/15 07:19:29;;;;;;;;;8.60;7.00;;;;;6.51;64.71;100932.75;5089591;28;8954;-64
2022/03/15 07:21:58;;;;;;;;;9.40;9.00;;;;;6.57;65.01;100929.78;5089805;28;8838;-64
2022/03/15 07:24:27;;;;;;;;;10.80;10.00;;;;;6.66;63.94;100924.06;5089577;28;8846;-64
2022/03/15 07:26:54;;;;;;;;;7.60;7.20;;;;;6.77;64.62;100927.03;5090689;28;8854;-64
2022/03/15 07:29:22;;;;;;;;;9.00;8.60;;;;;6.87;64.15;100917.72;5090816;28;8837;-64
2022/03/15 07:31:51;;;;;;;;;8.80;8.20;;;;;6.96;63.56;100919.94;5090904;28;8834;-64
2022/03/15 07:34:18;;;;;;;;;13.80;11.80;;;;;7.05;63.41;100917.66;5091632;28;8822;-64
2022/03/15 07:36:46;;;;;;;;;8.60;7.00;;;;;7.13;63.66;100915.50;5091567;28;8856;-64
2022/03/15 07:39:14;;;;;;;;;6.60;6.20;;;;;7.23;63.42;100918.53;5091585;28;8840;-64
2022/03/15 07:41:43;;;;;;;;;6.40;6.00;;;;;7.33;63.33;100909.19;5091118;28;8834;-64
2022/03/15 07:44:10;;;;;;;;;7.40;6.60;;;;;7.43;63.40;100921.88;5091696;28;9527;-64
2022/03/15 07:46:40;;;;;;;;;9.80;7.00;;;;;7.50;63.10;100912.69;5094319;28;8860;-64
2022/03/15 07:49:08;;;;;;;;;7.60;6.80;;;;;7.54;62.98;100916.91;5095455;28;8857;-63
2022/03/15 07:51:36;;;;;;;;;10.80;10.00;;;;;7.57;62.73;100910.59;5095135;28;8830;-64
2022/03/15 07:54:04;;;;;;;;;10.00;9.40;;;;;7.59;63.11;100908.72;5094432;28;8935;-63
2022/03/15 07:56:32;;;;;;;;;11.60;11.60;;;;;7.64;62.90;100904.88;5094498;28;8872;-64
2022/03/15 07:58:59;;;;;;;;;6.00;6.00;;;;;7.69;63.23;100901.03;5092222;28;9275;-64
2022/03/15 08:01:27;;;;;;;;;12.60;12.20;;;;;7.75;62.50;100892.78;5093624;28;8841;-64
2022/03/15 08:03:55;;;;;;;;;9.00;6.80;;;;;7.79;62.89;100886.41;5093465;28;8848;-64
2022/03/15 08:06:23;;;;;;;;;11.40;10.80;;;;;7.85;63.10;100883.38;5094695;28;8939;-64
2022/03/15 08:08:53;;;;;;;;;9.00;9.00;;;;;7.90;62.56;100877.88;5095377;28;8838;-64
2022/03/15 08:11:21;;;;;;;;;11.20;10.40;;;;;7.97;63.02;100873.91;5094613;28;8853;-64
2022/03/15 08:13:49;;;;;;;;;10.40;10.40;;;;;8.05;63.16;100864.63;5094579;28;8840;-64
2022/03/15 08:16:17;;;;;;;;;9.00;9.00;;;;;8.14;62.94;100863.28;5096775;28;8984;-64
2022/03/15 08:18:44;;;;;;;;;6.80;6.80;;;;;8.21;62.16;100872.63;5096927;28;8891;-64
2022/03/15 08:21:12;;;;;;;;;12.00;10.80;;;;;8.29;61.85;100860.63;5097985;28;8979;-64
2022/03/15 08:23:40;;;;;;;;;9.00;8.60;;;;;8.37;61.81;100861.06;5098206;28;8862;-64
2022/03/15 08:26:08;;;;;;;;;1.00;1.00;;;;;8.42;61.98;100859.03;5097147;28;8986;-64
2022/03/15 08:28:35;;;;;;;;;5.80;4.80;;;;;8.50;62.46;100850.66;5097544;28;8841;-64
2022/03/15 08:31:03;;;;;;;;;12.60;12.00;;;;;8.58;61.89;100853.72;5098232;28;9526;-64
2022/03/15 08:33:31;;;;;;;;;10.00;9.80;;;;;8.68;61.72;100845.09;5097799;28;8845;-64
2022/03/15 08:35:59;;;;;;;;;6.60;6.00;;;;;8.81;61.24;100850.59;5096195;28;8848;-64
2022/03/15 08:38:28;;;;;;;;;8.80;8.20;;;;;8.92;61.65;100843.72;5095514;28;8857;-63
2022/03/15 08:40:56;;;;;;;;;6.80;6.80;;;;;9.01;61.11;100843.16;5093325;28;8965;-63
2022/03/15 08:43:24;;;;;;;;;12.20;11.40;;;;;9.12;60.90;100843.38;5080887;28;9129;-64
2022/03/15 08:45:52;;;;;;;;;5.00;4.00;;;;;9.22;60.99;100841.91;5068166;28;9289;-63
2022/03/15 08:48:21;;;;;;;;;15.60;12.80;;;;;9.31;60.93;100838.69;5088653;28;8850;-64
2022/03/15 08:50:49;;;;;;;;;6.20;3.00;;;;;9.40;60.70;100842.56;5089124;28;8830;-64
2022/03/15 08:53:17;;;;;;;;;11.20;10.00;;;;;9.47;60.81;100843.91;5090751;28;8841;-64
2022/03/15 08:55:45;;;;;;;;;7.00;4.80;;;;;9.52;61.00;100840.06;5088719;28;8854;-63
2022/03/15 08:58:12;;;;;;;;;5.60;5.60;;;;;9.59;60.44;100828.09;5089528;28;8838;-63
2022/03/15 09:00:40;;;;;;;;;13.60;12.40;;;;;9.65;60.31;100822.38;5091103;28;8842;-64
2022/03/15 09:03:08;;;;;;;;;11.00;9.50;;;;;9.70;60.57;100822.97;5091275;28;8921;-64
2022/03/15 09:05:36;;;;;;;;;12.40;12.00;;;;;9.73;60.63;100822.75;5089716;28;8833;-63
2022/03/15 09:08:04;;;;;;;;;9.25;8.00;;;;;9.77;60.43;100821.63;5089904;28;8853;-64
2022/03/15 09:10:31;;;;;;;;;9.80;8.80;;;;;9.82;60.54;100814.22;5089123;28;8858;-64
2022/03/15 09:12:59;;;;;;;;;12.60;10.80;;;;;9.87;60.33;100812.13;5091041;28;8834;-64
2022/03/15 09:15:27;;;;;;;;;9.50;9.00;;;;;9.92;60.36;100812.69;5092080;28;8838;-63
2022/03/15 09:17:56;;;;;;;;;9.75;9.25;;;;;9.97;60.20;100809.72;5092260;28;8881;-64
2022/03/15 09:20:23;;;;;;;;;10.00;9.00;;;;;10.03;60.09;100814.72;5093642;28;8846;-64
2022/03/15 09:22:51;;;;;;;;;11.00;10.75;;;;;10.06;60.28;100815.38;5092412;28;8868;-64
2022/03/15 09:25:19;;;;;;;;;11.00;10.00;;;;;10.12;60.59;100807.00;5092903;28;8996;-65
2022/03/15 09:27:47;;;;;;;;;13.00;13.00;;;;;10.19;60.13;100805.66;5093009;28;8841;-64
2022/03/15 09:30:15;;;;;;;;;9.50;6.25;;;;;10.24;59.83;100798.22;5092892;28;9523;-64
2022/03/15 09:32:43;;;;;;;;;12.50;10.00;;;;;10.30;59.67;100795.16;5092741;28;8994;-64
2022/03/15 09:35:10;;;;;;;;;13.25;11.00;;;;;10.36;59.63;100797.44;5092294;28;8837;-63
2022/03/15 09:37:41;;;;;;;;;9.50;8.75;;;;;10.39;60.03;100783.91;5093181;28;8950;-64
2022/03/15 09:40:09;;;;;;;;;8.75;7.50;;;;;10.43;60.03;100780.09;5093334;28;9008;-64
2022/03/15 09:42:37;;;;;;;;;8.75;8.50;;;;;10.49;59.82;100785.03;5092384;28;8999;-64
2022/03/15 09:45:05;;;;;;;;;10.00;9.00;;;;;10.53;59.63;100783.84;5091473;28;9523;-64
2022/03/15 09:47:32;;;;;;;;;12.00;9.50;;;;;10.59;59.99;100778.13;5092645;28;8846;-64
2022/03/15 09:50:00;;;;;;;;;6.50;6.50;;;;;10.64;59.56;100775.16;5091316;28;8980;-64
2022/03/15 09:52:28;;;;;;;;;5.50;5.00;;;;;10.71;59.59;100769.31;5092928;28;8864;-64
2022/03/15 09:54:56;;;;;;;;;9.00;7.50;;;;;10.79;59.56;100766.13;5091667;28;8845;-64
2022/03/15 09:57:24;;;;;;;;;4.00;4.00;;;;;10.86;59.21;100762.09;5092517;28;8842;-64
2022/03/15 09:59:52;;;;;;;;;8.00;7.50;;;;;10.93;59.22;100753.56;5089827;28;8861;-64
2022/03/15 10:02:20;;;;;;;;;2.50;2.50;;;;;11.03;59.88;100759.16;5089597;28;8849;-63
2022/03/15 10:04:48;;;;;;;;;5.25;5.25;;;;;11.10;58.90;100745.31;5090579;28;8834;-63
2022/03/15 10:07:16;;;;;;;;;4.50;4.50;;;;;11.20;58.99;100757.03;5090635;28;8910;-63
2022/03/15 10:09:44;;;;;;;;;1.00;1.00;;;;;11.29;59.17;100748.38;5092964;28;8857;-63
2022/03/15 10:12:11;;;;;;;;;6.00;4.00;;;;;11.38;58.80;100741.56;5090940;28;9153;-64
2022/03/15 10:14:39;;;;;;;;;3.25;3.25;;;;;11.45;58.98;100745.50;5090453;28;8849;-64
2022/03/15 10:17:07;;;;;;;;;4.50;3.75;;;;;11.50;58.59;100744.22;5090695;28;8856;-63
2022/03/15 10:19:35;;;;;;;;;5.00;3.75;;;;;11.56;58.35;100735.78;5090795;28;8853;-63
2022/03/15 10:22:04;;;;;;;;;8.75;6.25;;;;;11.61;58.54;100725.66;5090152;28;8950;-64
2022/03/15 10:24:32;;;;;;;;;6.75;6.25;;;;;11.64;58.45;100717.47;5091577;28;9586;-63
2022/03/15 10:26:59;;;;;;;;;6.50;6.50;;;;;11.68;58.43;100713.59;5092320;28;8854;-63
2022/03/15 10:29:27;;;;;;;;;8.00;8.00;;;;;11.73;58.62;100707.91;5092678;28;8845;-64
2022/03/15 10:31:57;;;;;;;;;6.50;5.75;;;;;11.80;58.42;100706.50;5092830;28;8846;-64
2022/03/15 10:34:24;;;;;;;;;6.75;4.00;;;;;11.85;58.56;100713.25;5092108;28;8850;-64
2022/03/15 10:36:56;;;;;;;;;5.00;5.00;;;;;11.90;58.33;100716.41;5091715;28;9491;-63
2022/03/15 10:39:24;;;;;;;;;5.00;5.00;;;;;11.95;58.32;100711.59;5090305;28;9184;-64
2022/03/15 10:41:53;;;;;;;;;6.25;6.25;;;;;11.99;58.35;100708.59;5091112;28;8846;-64
2022/03/15 10:44:20;;;;;;;;;4.50;4.50;;;;;12.02;58.24;100704.84;5090100;28;8842;-64
2022/03/15 10:46:48;;;;;;;;;8.00;7.25;;;;;12.07;58.08;100702.72;5090934;28;8950;-65
2022/03/15 10:49:16;;;;;;;;;9.00;9.00;;;;;12.11;57.94;100706.84;5091819;28;8977;-64
2022/03/15 10:51:43;;;;;;;;;9.00;8.00;;;;;12.13;58.25;100691.56;5091788;28;8890;-64
2022/03/15 10:54:11;;;;;;;;;11.50;9.00;;;;;12.14;58.52;100690.59;5090896;28;8842;-64
2022/03/15 10:56:40;;;;;;;;;7.50;6.50;;;;;12.14;58.08;100687.91;5091770;28;8857;-64
2022/03/15 10:59:11;;;;;;;;;6.75;6.75;;;;;12.18;58.25;100686.75;5091131;28;8838;-64
2022/03/15 11:01:39;;;;;;;;;6.25;6.25;;;;;12.21;58.04;100673.16;5092817;28;8984;-64
2022/03/15 11:04:07;;;;;;;;;12.00;10.00;;;;;12.23;58.31;100681.91;5092592;28;8830;-64
2022/03/15 11:06:38;;;;;;;;;10.50;9.50;;;;;12.23;58.30;100677.41;5091698;28;8845;-64
2022/03/15 11:09:06;;;;;;;;;6.50;6.50;;;;;12.23;58.11;100676.56;5092405;28;8841;-64
2022/03/15 11:11:36;;;;;;;;;6.25;6.25;;;;;12.27;57.86;100675.38;5091809;28;8853;-64
2022/03/15 11:14:04;;;;;;;;;8.00;7.00;;;;;12.31;58.00;100669.69;5090406;28;8862;-64
2022/03/15 11:16:32;;;;;;;;;8.00;8.00;;;;;12.39;57.77;100661.94;5091925;28;8857;-65
2022/03/15 11:19:00;;;;;;;;;7.25;6.25;;;;;12.46;57.46;100659.66;5091028;28;8833;-64
2022/03/15 11:21:28;;;;;;;;;3.25;3.25;;;;;12.51;57.65;100658.34;5096153;28;8854;-64
2022/03/15 11:23:56;;;;;;;;;6.50;6.00;;;;;12.56;58.04;100658.00;5094469;28;8834;-65
2022/03/15 11:26:24;;;;;;;;;7.00;6.00;;;;;12.61;57.82;100664.69;5095479;28;8868;-64
2022/03/15 11:28:52;;;;;;;;;6.75;6.00;;;;;12.63;57.69;100648.53;5094582;28;9500;-65
2022/03/15 11:31:20;;;;;;;;;9.25;8.00;;;;;12.64;58.06;100642.22;5094880;28;8856;-64
2022/03/15 11:33:48;;;;;;;;;6.25;5.00;;;;;12.64;57.76;100643.09;5092921;28;8846;-64
2022/03/15 11:36:15;;;;;;;;;6.00;5.50;;;;;12.64;58.05;100635.06;5090501;28;8833;-64
2022/03/15 11:38:43;;;;;;;;;5.50;4.50;;;;;12.65;58.22;100631.44;5089201;28;8830;-64